sensor_id;sensor_type;location;lat;lon;timestamp;P1;durP1;ratioP1;P2;durP2;ratioP2
41043;SDS011;51680;49.806;18.774;2023-07-29T00:02:06;3.70;;;2.15;;
41043;SDS011;51680;49.806;18.774;2023-07-29T00:05:09;4.88;;;2.80;;
41043;SDS011;51680;49.806;18.774;2023-07-29T00:08:11;4.10;;;2.10;;
41043;SDS011;51680;49.806;18.774;2023-07-29T00:11:13;4.35;;;2.55;;
41043;SDS011;51680;49.806;18.774;2023-07-29T00:14:14;3.92;;;2.15;;
41043;SDS011;51680;49.806;18.774;2023-07-29T00:17:16;4.60;;;2.40;;
41043;SDS011;51680;49.806;18.774;2023-07-29T00:20:21;6.85;;;2.38;;
41043;SDS011;51680;49.806;18.774;2023-07-29T00:23:23;3.42;;;2.08;;
41043;SDS011;51680;49.806;18.774;2023-07-29T00:26:25;4.68;;;2.40;;
41043;SDS011;51680;49.806;18.774;2023-07-29T00:32:30;5.75;;;2.17;;
41043;SDS011;51680;49.806;18.774;2023-07-29T00:35:33;4.60;;;2.63;;
41043;SDS011;51680;49.806;18.774;2023-07-29T00:38:35;5.25;;;2.50;;
41043;SDS011;51680;49.806;18.774;2023-07-29T00:41:37;3.95;;;2.22;;
41043;SDS011;51680;49.806;18.774;2023-07-29T00:44:39;3.72;;;2.20;;
41043;SDS011;51680;49.806;18.774;2023-07-29T00:47:41;3.92;;;2.13;;
41043;SDS011;51680;49.806;18.774;2023-07-29T00:50:45;6.65;;;2.53;;
41043;SDS011;51680;49.806;18.774;2023-07-29T00:53:47;4.82;;;2.05;;
41043;SDS011;51680;49.806;18.774;2023-07-29T00:56:48;5.85;;;1.98;;
41043;SDS011;51680;49.806;18.774;2023-07-29T00:59:51;5.82;;;2.25;;
41043;SDS011;51680;49.806;18.774;2023-07-29T01:02:54;3.93;;;2.00;;
41043;SDS011;51680;49.806;18.774;2023-07-29T01:06:01;3.53;;;1.98;;
41043;SDS011;51680;49.806;18.774;2023-07-29T01:09:11;4.20;;;2.03;;
41043;SDS011;51680;49.806;18.774;2023-07-29T01:12:20;5.13;;;2.20;;
41043;SDS011;51680;49.806;18.774;2023-07-29T01:15:26;4.32;;;2.00;;
41043;SDS011;51680;49.806;18.774;2023-07-29T01:18:35;3.58;;;2.10;;
41043;SDS011;51680;49.806;18.774;2023-07-29T01:21:41;4.85;;;2.03;;
41043;SDS011;51680;49.806;18.774;2023-07-29T01:24:44;3.03;;;1.90;;
41043;SDS011;51680;49.806;18.774;2023-07-29T01:27:48;4.03;;;2.17;;
41043;SDS011;51680;49.806;18.774;2023-07-29T01:30:56;5.00;;;2.42;;
41043;SDS011;51680;49.806;18.774;2023-07-29T01:34:05;3.40;;;2.17;;
41043;SDS011;51680;49.806;18.774;2023-07-29T01:37:12;5.53;;;1.70;;
41043;SDS011;51680;49.806;18.774;2023-07-29T01:40:22;6.38;;;1.98;;
41043;SDS011;51680;49.806;18.774;2023-07-29T01:43:28;2.70;;;1.60;;
41043;SDS011;51680;49.806;18.774;2023-07-29T01:46:31;2.85;;;1.75;;
41043;SDS011;51680;49.806;18.774;2023-07-29T01:49:34;3.25;;;1.88;;
41043;SDS011;51680;49.806;18.774;2023-07-29T01:52:36;3.33;;;1.80;;
41043;SDS011;51680;49.806;18.774;2023-07-29T01:55:39;6.00;;;2.03;;
41043;SDS011;51680;49.806;18.774;2023-07-29T02:01:43;4.20;;;1.80;;
41043;SDS011;51680;49.806;18.774;2023-07-29T02:04:46;3.10;;;1.80;;
41043;SDS011;51680;49.806;18.774;2023-07-29T02:07:51;7.22;;;1.83;;
41043;SDS011;51680;49.806;18.774;2023-07-29T02:10:54;3.63;;;1.60;;
41043;SDS011;51680;49.806;18.774;2023-07-29T02:13:58;3.53;;;1.60;;
41043;SDS011;51680;49.806;18.774;2023-07-29T02:17:00;3.75;;;1.70;;
41043;SDS011;51680;49.806;18.774;2023-07-29T02:20:02;4.57;;;1.70;;
41043;SDS011;51680;49.806;18.774;2023-07-29T02:23:05;3.40;;;1.88;;
41043;SDS011;51680;49.806;18.774;2023-07-29T02:26:08;4.93;;;2.05;;
41043;SDS011;51680;49.806;18.774;2023-07-29T02:29:11;3.05;;;1.60;;
41043;SDS011;51680;49.806;18.774;2023-07-29T02:32:12;6.03;;;2.00;;
41043;SDS011;51680;49.806;18.774;2023-07-29T02:35:14;2.17;;;1.48;;
41043;SDS011;51680;49.806;18.774;2023-07-29T02:38:16;4.95;;;1.83;;
41043;SDS011;51680;49.806;18.774;2023-07-29T02:41:19;3.15;;;1.67;;
41043;SDS011;51680;49.806;18.774;2023-07-29T02:44:21;4.38;;;2.00;;
41043;SDS011;51680;49.806;18.774;2023-07-29T02:47:23;4.32;;;2.22;;
41043;SDS011;51680;49.806;18.774;2023-07-29T02:50:25;3.45;;;1.75;;
41043;SDS011;51680;49.806;18.774;2023-07-29T02:53:27;3.78;;;1.77;;
41043;SDS011;51680;49.806;18.774;2023-07-29T02:56:30;4.07;;;2.08;;
41043;SDS011;51680;49.806;18.774;2023-07-29T02:59:32;2.70;;;1.73;;
41043;SDS011;51680;49.806;18.774;2023-07-29T03:02:33;3.00;;;1.85;;
41043;SDS011;51680;49.806;18.774;2023-07-29T03:05:35;8.02;;;2.05;;
41043;SDS011;51680;49.806;18.774;2023-07-29T03:08:38;3.67;;;1.80;;
41043;SDS011;51680;49.806;18.774;2023-07-29T03:11:41;3.60;;;1.80;;
41043;SDS011;51680;49.806;18.774;2023-07-29T03:14:43;3.20;;;1.97;;
41043;SDS011;51680;49.806;18.774;2023-07-29T03:17:48;3.67;;;2.05;;
41043;SDS011;51680;49.806;18.774;2023-07-29T03:20:50;3.15;;;2.00;;
41043;SDS011;51680;49.806;18.774;2023-07-29T03:23:52;5.05;;;1.83;;
41043;SDS011;51680;49.806;18.774;2023-07-29T03:26:55;4.65;;;1.60;;
41043;SDS011;51680;49.806;18.774;2023-07-29T03:29:57;4.25;;;2.25;;
41043;SDS011;51680;49.806;18.774;2023-07-29T03:32:59;4.00;;;1.98;;
41043;SDS011;51680;49.806;18.774;2023-07-29T03:36:01;3.00;;;1.83;;
41043;SDS011;51680;49.806;18.774;2023-07-29T03:39:03;5.05;;;2.17;;
41043;SDS011;51680;49.806;18.774;2023-07-29T03:42:06;3.42;;;2.00;;
41043;SDS011;51680;49.806;18.774;2023-07-29T03:45:09;3.50;;;1.80;;
41043;SDS011;51680;49.806;18.774;2023-07-29T03:48:12;4.07;;;1.80;;
41043;SDS011;51680;49.806;18.774;2023-07-29T03:51:13;3.55;;;1.90;;
41043;SDS011;51680;49.806;18.774;2023-07-29T03:54:15;2.92;;;1.90;;
41043;SDS011;51680;49.806;18.774;2023-07-29T03:57:18;4.68;;;2.08;;
41043;SDS011;51680;49.806;18.774;2023-07-29T04:00:20;3.87;;;2.17;;
41043;SDS011;51680;49.806;18.774;2023-07-29T04:03:22;3.28;;;2.00;;
41043;SDS011;51680;49.806;18.774;2023-07-29T04:06:26;3.75;;;2.03;;
41043;SDS011;51680;49.806;18.774;2023-07-29T04:09:28;3.75;;;2.20;;
41043;SDS011;51680;49.806;18.774;2023-07-29T04:12:31;3.33;;;2.25;;
41043;SDS011;51680;49.806;18.774;2023-07-29T04:15:33;3.80;;;2.07;;
41043;SDS011;51680;49.806;18.774;2023-07-29T04:18:35;2.95;;;1.92;;
41043;SDS011;51680;49.806;18.774;2023-07-29T04:21:37;3.67;;;2.00;;
41043;SDS011;51680;49.806;18.774;2023-07-29T04:24:38;3.47;;;1.75;;
41043;SDS011;51680;49.806;18.774;2023-07-29T04:27:42;5.13;;;1.90;;
41043;SDS011;51680;49.806;18.774;2023-07-29T04:30:43;4.20;;;2.00;;
41043;SDS011;51680;49.806;18.774;2023-07-29T04:33:45;4.65;;;2.00;;
41043;SDS011;51680;49.806;18.774;2023-07-29T04:36:47;3.90;;;1.90;;
41043;SDS011;51680;49.806;18.774;2023-07-29T04:39:49;2.65;;;1.83;;
41043;SDS011;51680;49.806;18.774;2023-07-29T04:42:53;4.40;;;1.77;;
41043;SDS011;51680;49.806;18.774;2023-07-29T04:45:54;3.97;;;2.00;;
41043;SDS011;51680;49.806;18.774;2023-07-29T04:48:56;3.30;;;1.90;;
41043;SDS011;51680;49.806;18.774;2023-07-29T04:51:58;2.75;;;1.85;;
41043;SDS011;51680;49.806;18.774;2023-07-29T04:55:00;3.67;;;2.20;;
41043;SDS011;51680;49.806;18.774;2023-07-29T04:58:03;3.33;;;2.10;;
41043;SDS011;51680;49.806;18.774;2023-07-29T05:01:05;3.60;;;2.10;;
41043;SDS011;51680;49.806;18.774;2023-07-29T05:04:07;4.57;;;1.90;;
41043;SDS011;51680;49.806;18.774;2023-07-29T05:07:08;4.13;;;2.10;;
41043;SDS011;51680;49.806;18.774;2023-07-29T05:10:10;3.95;;;1.95;;
41043;SDS011;51680;49.806;18.774;2023-07-29T05:13:14;5.03;;;1.90;;
41043;SDS011;51680;49.806;18.774;2023-07-29T05:16:15;4.73;;;2.00;;
41043;SDS011;51680;49.806;18.774;2023-07-29T05:19:17;4.15;;;2.05;;
41043;SDS011;51680;49.806;18.774;2023-07-29T05:22:19;4.05;;;1.90;;
41043;SDS011;51680;49.806;18.774;2023-07-29T05:25:21;2.78;;;1.80;;
41043;SDS011;51680;49.806;18.774;2023-07-29T05:28:24;4.25;;;2.00;;
41043;SDS011;51680;49.806;18.774;2023-07-29T05:31:25;3.53;;;1.90;;
41043;SDS011;51680;49.806;18.774;2023-07-29T05:34:28;4.38;;;1.65;;
41043;SDS011;51680;49.806;18.774;2023-07-29T05:37:29;3.58;;;1.85;;
41043;SDS011;51680;49.806;18.774;2023-07-29T05:40:31;3.55;;;2.10;;
41043;SDS011;51680;49.806;18.774;2023-07-29T05:43:34;4.43;;;1.73;;
41043;SDS011;51680;49.806;18.774;2023-07-29T05:46:36;2.00;;;1.47;;
41043;SDS011;51680;49.806;18.774;2023-07-29T05:49:38;5.40;;;1.65;;
41043;SDS011;51680;49.806;18.774;2023-07-29T05:52:40;3.30;;;1.80;;
41043;SDS011;51680;49.806;18.774;2023-07-29T05:55:42;2.67;;;1.42;;
41043;SDS011;51680;49.806;18.774;2023-07-29T05:58:46;3.25;;;1.67;;
41043;SDS011;51680;49.806;18.774;2023-07-29T06:01:47;3.77;;;1.43;;
41043;SDS011;51680;49.806;18.774;2023-07-29T06:04:49;2.65;;;1.50;;
41043;SDS011;51680;49.806;18.774;2023-07-29T06:07:51;4.25;;;1.55;;
41043;SDS011;51680;49.806;18.774;2023-07-29T06:10:53;4.35;;;1.35;;
41043;SDS011;51680;49.806;18.774;2023-07-29T06:13:56;4.10;;;1.30;;
41043;SDS011;51680;49.806;18.774;2023-07-29T06:16:58;2.25;;;1.20;;
41043;SDS011;51680;49.806;18.774;2023-07-29T06:20:01;3.30;;;1.40;;
41043;SDS011;51680;49.806;18.774;2023-07-29T06:23:03;2.85;;;1.15;;
41043;SDS011;51680;49.806;18.774;2023-07-29T06:26:04;2.67;;;1.50;;
41043;SDS011;51680;49.806;18.774;2023-07-29T06:29:08;1.77;;;1.13;;
41043;SDS011;51680;49.806;18.774;2023-07-29T06:32:10;3.33;;;1.48;;
41043;SDS011;51680;49.806;18.774;2023-07-29T06:35:11;2.78;;;1.48;;
41043;SDS011;51680;49.806;18.774;2023-07-29T06:38:13;3.65;;;1.45;;
41043;SDS011;51680;49.806;18.774;2023-07-29T06:41:15;2.17;;;1.45;;
41043;SDS011;51680;49.806;18.774;2023-07-29T06:44:18;2.33;;;1.30;;
41043;SDS011;51680;49.806;18.774;2023-07-29T06:47:20;2.63;;;1.20;;
41043;SDS011;51680;49.806;18.774;2023-07-29T06:50:22;3.25;;;1.08;;
41043;SDS011;51680;49.806;18.774;2023-07-29T06:53:23;2.70;;;1.13;;
41043;SDS011;51680;49.806;18.774;2023-07-29T06:56:25;2.67;;;1.10;;
41043;SDS011;51680;49.806;18.774;2023-07-29T06:59:28;3.35;;;1.23;;
41043;SDS011;51680;49.806;18.774;2023-07-29T07:02:30;2.83;;;1.30;;
41043;SDS011;51680;49.806;18.774;2023-07-29T07:05:32;3.83;;;1.40;;
41043;SDS011;51680;49.806;18.774;2023-07-29T07:08:33;5.78;;;1.38;;
41043;SDS011;51680;49.806;18.774;2023-07-29T07:11:35;2.60;;;1.42;;
41043;SDS011;51680;49.806;18.774;2023-07-29T07:14:38;5.43;;;1.48;;
41043;SDS011;51680;49.806;18.774;2023-07-29T07:17:40;2.08;;;1.23;;
41043;SDS011;51680;49.806;18.774;2023-07-29T07:20:42;2.97;;;1.40;;
41043;SDS011;51680;49.806;18.774;2023-07-29T07:23:44;4.35;;;1.30;;
41043;SDS011;51680;49.806;18.774;2023-07-29T07:26:46;2.20;;;1.15;;
41043;SDS011;51680;49.806;18.774;2023-07-29T07:29:49;3.78;;;1.30;;
41043;SDS011;51680;49.806;18.774;2023-07-29T07:32:51;2.92;;;1.30;;
41043;SDS011;51680;49.806;18.774;2023-07-29T07:35:52;2.58;;;1.10;;
41043;SDS011;51680;49.806;18.774;2023-07-29T07:38:54;2.30;;;1.00;;
41043;SDS011;51680;49.806;18.774;2023-07-29T07:41:56;1.98;;;1.10;;
41043;SDS011;51680;49.806;18.774;2023-07-29T07:44:59;5.75;;;1.20;;
41043;SDS011;51680;49.806;18.774;2023-07-29T07:48:00;4.13;;;1.27;;
41043;SDS011;51680;49.806;18.774;2023-07-29T07:51:09;2.40;;;1.10;;
41043;SDS011;51680;49.806;18.774;2023-07-29T07:54:11;2.78;;;1.10;;
41043;SDS011;51680;49.806;18.774;2023-07-29T07:57:13;2.47;;;1.30;;
41043;SDS011;51680;49.806;18.774;2023-07-29T08:00:17;2.13;;;1.10;;
41043;SDS011;51680;49.806;18.774;2023-07-29T08:03:20;2.10;;;1.10;;
41043;SDS011;51680;49.806;18.774;2023-07-29T08:06:21;3.83;;;1.10;;
41043;SDS011;51680;49.806;18.774;2023-07-29T08:09:23;1.90;;;1.10;;
41043;SDS011;51680;49.806;18.774;2023-07-29T08:12:25;1.80;;;0.98;;
41043;SDS011;51680;49.806;18.774;2023-07-29T08:15:28;3.00;;;1.20;;
41043;SDS011;51680;49.806;18.774;2023-07-29T08:18:30;2.83;;;1.27;;
41043;SDS011;51680;49.806;18.774;2023-07-29T08:21:31;3.50;;;1.10;;
41043;SDS011;51680;49.806;18.774;2023-07-29T08:24:33;2.20;;;1.23;;
41043;SDS011;51680;49.806;18.774;2023-07-29T08:27:35;4.50;;;1.45;;
41043;SDS011;51680;49.806;18.774;2023-07-29T08:30:38;2.83;;;1.48;;
41043;SDS011;51680;49.806;18.774;2023-07-29T08:33:40;2.95;;;1.20;;
41043;SDS011;51680;49.806;18.774;2023-07-29T08:36:41;2.72;;;1.40;;
41043;SDS011;51680;49.806;18.774;2023-07-29T08:39:43;5.55;;;1.50;;
41043;SDS011;51680;49.806;18.774;2023-07-29T08:42:45;3.50;;;1.45;;
41043;SDS011;51680;49.806;18.774;2023-07-29T08:45:51;3.05;;;1.10;;
41043;SDS011;51680;49.806;18.774;2023-07-29T08:51:55;5.05;;;1.48;;
41043;SDS011;51680;49.806;18.774;2023-07-29T08:54:59;2.72;;;1.30;;
41043;SDS011;51680;49.806;18.774;2023-07-29T08:58:01;3.03;;;1.30;;
41043;SDS011;51680;49.806;18.774;2023-07-29T09:01:05;4.45;;;1.40;;
41043;SDS011;51680;49.806;18.774;2023-07-29T09:04:07;2.85;;;1.48;;
41043;SDS011;51680;49.806;18.774;2023-07-29T09:07:09;2.92;;;1.30;;
41043;SDS011;51680;49.806;18.774;2023-07-29T09:10:12;3.40;;;1.17;;
41043;SDS011;51680;49.806;18.774;2023-07-29T09:13:14;2.95;;;1.23;;
41043;SDS011;51680;49.806;18.774;2023-07-29T09:16:17;2.22;;;1.38;;
41043;SDS011;51680;49.806;18.774;2023-07-29T09:19:19;2.35;;;1.30;;
41043;SDS011;51680;49.806;18.774;2023-07-29T09:22:21;2.15;;;1.33;;
41043;SDS011;51680;49.806;18.774;2023-07-29T09:25:24;2.25;;;1.23;;
41043;SDS011;51680;49.806;18.774;2023-07-29T09:28:27;1.73;;;1.05;;
41043;SDS011;51680;49.806;18.774;2023-07-29T09:31:35;3.35;;;1.60;;
41043;SDS011;51680;49.806;18.774;2023-07-29T09:34:38;2.97;;;1.33;;
41043;SDS011;51680;49.806;18.774;2023-07-29T09:37:43;3.50;;;2.20;;
41043;SDS011;51680;49.806;18.774;2023-07-29T09:40:45;4.45;;;2.00;;
41043;SDS011;51680;49.806;18.774;2023-07-29T09:43:46;5.38;;;2.15;;
41043;SDS011;51680;49.806;18.774;2023-07-29T09:46:49;5.47;;;2.22;;
41043;SDS011;51680;49.806;18.774;2023-07-29T09:49:51;4.90;;;2.38;;
41043;SDS011;51680;49.806;18.774;2023-07-29T09:52:54;3.00;;;1.80;;
41043;SDS011;51680;49.806;18.774;2023-07-29T09:55:58;5.72;;;1.70;;
41043;SDS011;51680;49.806;18.774;2023-07-29T09:59:00;3.65;;;1.40;;
41043;SDS011;51680;49.806;18.774;2023-07-29T10:02:03;3.15;;;1.50;;
41043;SDS011;51680;49.806;18.774;2023-07-29T10:05:06;5.00;;;1.40;;
41043;SDS011;51680;49.806;18.774;2023-07-29T10:08:09;3.78;;;1.80;;
41043;SDS011;51680;49.806;18.774;2023-07-29T10:11:12;3.58;;;1.60;;
41043;SDS011;51680;49.806;18.774;2023-07-29T10:14:14;2.25;;;1.40;;
41043;SDS011;51680;49.806;18.774;2023-07-29T10:17:20;3.20;;;1.40;;
41043;SDS011;51680;49.806;18.774;2023-07-29T10:20:22;3.45;;;1.10;;
41043;SDS011;51680;49.806;18.774;2023-07-29T10:23:24;2.45;;;1.40;;
41043;SDS011;51680;49.806;18.774;2023-07-29T10:26:27;2.25;;;1.30;;
41043;SDS011;51680;49.806;18.774;2023-07-29T10:29:35;3.78;;;1.50;;
41043;SDS011;51680;49.806;18.774;2023-07-29T10:32:43;5.03;;;1.30;;
41043;SDS011;51680;49.806;18.774;2023-07-29T10:35:45;5.43;;;1.67;;
41043;SDS011;51680;49.806;18.774;2023-07-29T10:38:47;7.45;;;1.65;;
41043;SDS011;51680;49.806;18.774;2023-07-29T10:45:19;4.15;;;1.73;;
41043;SDS011;51680;49.806;18.774;2023-07-29T10:48:42;6.32;;;1.80;;
41043;SDS011;51680;49.806;18.774;2023-07-29T10:51:44;3.90;;;1.80;;
41043;SDS011;51680;49.806;18.774;2023-07-29T10:54:47;2.72;;;1.60;;
41043;SDS011;51680;49.806;18.774;2023-07-29T10:57:49;2.53;;;1.50;;
41043;SDS011;51680;49.806;18.774;2023-07-29T11:00:51;3.97;;;1.70;;
41043;SDS011;51680;49.806;18.774;2023-07-29T11:07:28;2.17;;;1.20;;
41043;SDS011;51680;49.806;18.774;2023-07-29T11:10:29;3.25;;;1.38;;
41043;SDS011;51680;49.806;18.774;2023-07-29T11:13:44;2.95;;;1.50;;
41043;SDS011;51680;49.806;18.774;2023-07-29T11:16:46;2.63;;;1.20;;
41043;SDS011;51680;49.806;18.774;2023-07-29T11:19:49;2.00;;;1.17;;
41043;SDS011;51680;49.806;18.774;2023-07-29T11:22:52;2.72;;;1.30;;
41043;SDS011;51680;49.806;18.774;2023-07-29T11:25:55;2.50;;;1.67;;
41043;SDS011;51680;49.806;18.774;2023-07-29T11:28:56;2.42;;;1.27;;
41043;SDS011;51680;49.806;18.774;2023-07-29T11:31:59;4.18;;;1.60;;
41043;SDS011;51680;49.806;18.774;2023-07-29T11:35:02;2.75;;;1.40;;
41043;SDS011;51680;49.806;18.774;2023-07-29T11:38:05;2.53;;;1.20;;
41043;SDS011;51680;49.806;18.774;2023-07-29T11:41:07;2.00;;;1.17;;
41043;SDS011;51680;49.806;18.774;2023-07-29T11:44:09;4.15;;;1.55;;
41043;SDS011;51680;49.806;18.774;2023-07-29T11:47:11;2.17;;;1.40;;
41043;SDS011;51680;49.806;18.774;2023-07-29T11:50:15;2.08;;;1.08;;
41043;SDS011;51680;49.806;18.774;2023-07-29T11:53:17;3.03;;;1.40;;
41043;SDS011;51680;49.806;18.774;2023-07-29T11:56:19;1.35;;;0.90;;
41043;SDS011;51680;49.806;18.774;2023-07-29T11:59:21;2.15;;;1.05;;
41043;SDS011;51680;49.806;18.774;2023-07-29T12:02:23;1.75;;;0.70;;
41043;SDS011;51680;49.806;18.774;2023-07-29T12:05:27;1.90;;;1.00;;
41043;SDS011;51680;49.806;18.774;2023-07-29T12:08:29;2.17;;;1.00;;
41043;SDS011;51680;49.806;18.774;2023-07-29T12:11:31;2.55;;;1.20;;
41043;SDS011;51680;49.806;18.774;2023-07-29T12:14:33;1.95;;;0.90;;
41043;SDS011;51680;49.806;18.774;2023-07-29T12:17:37;3.58;;;1.13;;
41043;SDS011;51680;49.806;18.774;2023-07-29T12:20:43;2.35;;;1.25;;
41043;SDS011;51680;49.806;18.774;2023-07-29T12:23:44;2.15;;;1.20;;
41043;SDS011;51680;49.806;18.774;2023-07-29T12:26:46;2.00;;;1.23;;
41043;SDS011;51680;49.806;18.774;2023-07-29T12:29:48;2.47;;;1.30;;
41043;SDS011;51680;49.806;18.774;2023-07-29T12:32:53;3.10;;;1.52;;
41043;SDS011;51680;49.806;18.774;2023-07-29T12:35:56;3.03;;;1.50;;
41043;SDS011;51680;49.806;18.774;2023-07-29T12:38:58;3.85;;;1.40;;
41043;SDS011;51680;49.806;18.774;2023-07-29T12:42:01;5.70;;;1.60;;
41043;SDS011;51680;49.806;18.774;2023-07-29T12:45:04;2.83;;;1.50;;
41043;SDS011;51680;49.806;18.774;2023-07-29T12:48:07;3.58;;;1.48;;
41043;SDS011;51680;49.806;18.774;2023-07-29T12:51:10;7.28;;;1.77;;
41043;SDS011;51680;49.806;18.774;2023-07-29T12:54:12;1.50;;;1.00;;
41043;SDS011;51680;49.806;18.774;2023-07-29T12:57:14;1.70;;;0.90;;
41043;SDS011;51680;49.806;18.774;2023-07-29T13:00:15;1.88;;;1.00;;
41043;SDS011;51680;49.806;18.774;2023-07-29T13:03:17;0.90;;;0.70;;
41043;SDS011;51680;49.806;18.774;2023-07-29T13:06:20;2.10;;;0.90;;
41043;SDS011;51680;49.806;18.774;2023-07-29T13:09:22;1.50;;;0.70;;
41043;SDS011;51680;49.806;18.774;2023-07-29T13:12:24;1.48;;;0.77;;
41043;SDS011;51680;49.806;18.774;2023-07-29T13:15:25;1.23;;;0.60;;
41043;SDS011;51680;49.806;18.774;2023-07-29T13:18:27;2.40;;;0.70;;
41043;SDS011;51680;49.806;18.774;2023-07-29T13:21:31;2.08;;;0.68;;
41043;SDS011;51680;49.806;18.774;2023-07-29T13:24:32;3.20;;;0.80;;
41043;SDS011;51680;49.806;18.774;2023-07-29T13:27:34;4.13;;;0.75;;
41043;SDS011;51680;49.806;18.774;2023-07-29T13:30:36;2.03;;;0.80;;
41043;SDS011;51680;49.806;18.774;2023-07-29T13:33:38;1.73;;;0.90;;
41043;SDS011;51680;49.806;18.774;2023-07-29T13:36:41;1.48;;;0.80;;
41043;SDS011;51680;49.806;18.774;2023-07-29T13:39:43;2.43;;;0.90;;
41043;SDS011;51680;49.806;18.774;2023-07-29T13:42:45;3.83;;;1.00;;
41043;SDS011;51680;49.806;18.774;2023-07-29T13:45:47;2.17;;;1.00;;
41043;SDS011;51680;49.806;18.774;2023-07-29T13:48:50;1.27;;;0.77;;
41043;SDS011;51680;49.806;18.774;2023-07-29T13:51:53;2.67;;;0.90;;
41043;SDS011;51680;49.806;18.774;2023-07-29T13:54:55;3.13;;;1.20;;
41043;SDS011;51680;49.806;18.774;2023-07-29T13:57:56;2.20;;;1.17;;
41043;SDS011;51680;49.806;18.774;2023-07-29T14:00:58;2.03;;;1.10;;
41043;SDS011;51680;49.806;18.774;2023-07-29T14:04:00;2.90;;;1.20;;
41043;SDS011;51680;49.806;18.774;2023-07-29T14:07:03;1.73;;;0.98;;
41043;SDS011;51680;49.806;18.774;2023-07-29T14:10:05;1.77;;;0.88;;
41043;SDS011;51680;49.806;18.774;2023-07-29T14:13:08;2.38;;;1.08;;
41043;SDS011;51680;49.806;18.774;2023-07-29T14:16:09;1.58;;;0.93;;
41043;SDS011;51680;49.806;18.774;2023-07-29T14:19:11;2.17;;;1.00;;
41043;SDS011;51680;49.806;18.774;2023-07-29T14:22:14;1.77;;;1.10;;
41043;SDS011;51680;49.806;18.774;2023-07-29T14:25:16;2.40;;;1.08;;
41043;SDS011;51680;49.806;18.774;2023-07-29T14:28:18;2.88;;;1.10;;
41043;SDS011;51680;49.806;18.774;2023-07-29T14:31:20;2.38;;;0.90;;
41043;SDS011;51680;49.806;18.774;2023-07-29T14:34:22;2.28;;;1.10;;
41043;SDS011;51680;49.806;18.774;2023-07-29T14:37:25;2.05;;;1.15;;
41043;SDS011;51680;49.806;18.774;2023-07-29T14:40:27;3.05;;;1.45;;
41043;SDS011;51680;49.806;18.774;2023-07-29T14:43:29;2.30;;;1.13;;
41043;SDS011;51680;49.806;18.774;2023-07-29T14:46:31;2.72;;;1.20;;
41043;SDS011;51680;49.806;18.774;2023-07-29T14:49:33;2.92;;;1.10;;
41043;SDS011;51680;49.806;18.774;2023-07-29T14:52:36;2.08;;;1.17;;
41043;SDS011;51680;49.806;18.774;2023-07-29T14:55:38;1.65;;;1.00;;
41043;SDS011;51680;49.806;18.774;2023-07-29T14:58:39;1.50;;;1.05;;
41043;SDS011;51680;49.806;18.774;2023-07-29T15:01:41;6.50;;;1.10;;
41043;SDS011;51680;49.806;18.774;2023-07-29T15:04:43;3.38;;;1.30;;
41043;SDS011;51680;49.806;18.774;2023-07-29T15:07:46;1.92;;;1.13;;
41043;SDS011;51680;49.806;18.774;2023-07-29T15:10:48;3.95;;;1.27;;
41043;SDS011;51680;49.806;18.774;2023-07-29T15:13:50;2.42;;;1.20;;
41043;SDS011;51680;49.806;18.774;2023-07-29T15:16:52;2.47;;;1.00;;
41043;SDS011;51680;49.806;18.774;2023-07-29T15:19:53;2.30;;;1.30;;
41043;SDS011;51680;49.806;18.774;2023-07-29T15:22:56;2.22;;;1.05;;
41043;SDS011;51680;49.806;18.774;2023-07-29T15:25:58;3.92;;;1.30;;
41043;SDS011;51680;49.806;18.774;2023-07-29T15:29:00;3.50;;;1.05;;
41043;SDS011;51680;49.806;18.774;2023-07-29T15:32:02;1.95;;;1.17;;
41043;SDS011;51680;49.806;18.774;2023-07-29T15:35:04;3.03;;;1.30;;
41043;SDS011;51680;49.806;18.774;2023-07-29T15:38:08;3.78;;;1.15;;
41043;SDS011;51680;49.806;18.774;2023-07-29T15:41:10;3.63;;;1.40;;
41043;SDS011;51680;49.806;18.774;2023-07-29T15:44:11;3.90;;;1.25;;
41043;SDS011;51680;49.806;18.774;2023-07-29T15:47:13;2.63;;;1.10;;
41043;SDS011;51680;49.806;18.774;2023-07-29T15:50:18;3.00;;;1.02;;
41043;SDS011;51680;49.806;18.774;2023-07-29T15:53:21;2.20;;;1.00;;
41043;SDS011;51680;49.806;18.774;2023-07-29T15:56:23;1.73;;;0.85;;
41043;SDS011;51680;49.806;18.774;2023-07-29T15:59:25;2.70;;;1.20;;
41043;SDS011;51680;49.806;18.774;2023-07-29T16:02:27;3.58;;;1.08;;
41043;SDS011;51680;49.806;18.774;2023-07-29T16:05:28;2.28;;;1.30;;
41043;SDS011;51680;49.806;18.774;2023-07-29T16:08:31;2.40;;;1.25;;
41043;SDS011;51680;49.806;18.774;2023-07-29T16:11:33;2.95;;;1.35;;
41043;SDS011;51680;49.806;18.774;2023-07-29T16:14:35;3.45;;;1.55;;
41043;SDS011;51680;49.806;18.774;2023-07-29T16:17:37;3.38;;;1.45;;
41043;SDS011;51680;49.806;18.774;2023-07-29T16:20:39;6.75;;;1.45;;
41043;SDS011;51680;49.806;18.774;2023-07-29T16:23:42;4.40;;;1.40;;
41043;SDS011;51680;49.806;18.774;2023-07-29T16:26:44;4.85;;;1.20;;
41043;SDS011;51680;49.806;18.774;2023-07-29T16:29:45;3.85;;;0.85;;
41043;SDS011;51680;49.806;18.774;2023-07-29T16:32:47;1.08;;;0.65;;
41043;SDS011;51680;49.806;18.774;2023-07-29T16:35:49;3.33;;;0.60;;
41043;SDS011;51680;49.806;18.774;2023-07-29T16:38:52;3.90;;;0.85;;
41043;SDS011;51680;49.806;18.774;2023-07-29T16:41:54;1.20;;;0.40;;
41043;SDS011;51680;49.806;18.774;2023-07-29T16:44:56;2.67;;;0.63;;
41043;SDS011;51680;49.806;18.774;2023-07-29T16:47:57;2.90;;;0.90;;
41043;SDS011;51680;49.806;18.774;2023-07-29T16:50:59;3.08;;;1.08;;
41043;SDS011;51680;49.806;18.774;2023-07-29T16:54:03;1.85;;;0.60;;
41043;SDS011;51680;49.806;18.774;2023-07-29T16:57:04;6.20;;;1.33;;
41043;SDS011;51680;49.806;18.774;2023-07-29T17:00:07;2.03;;;1.00;;
41043;SDS011;51680;49.806;18.774;2023-07-29T17:03:09;3.75;;;0.90;;
41043;SDS011;51680;49.806;18.774;2023-07-29T17:06:11;5.18;;;1.23;;
41043;SDS011;51680;49.806;18.774;2023-07-29T17:09:14;5.40;;;1.05;;
41043;SDS011;51680;49.806;18.774;2023-07-29T17:12:16;2.60;;;1.00;;
41043;SDS011;51680;49.806;18.774;2023-07-29T17:15:18;2.58;;;1.00;;
41043;SDS011;51680;49.806;18.774;2023-07-29T17:18:20;3.40;;;1.00;;
41043;SDS011;51680;49.806;18.774;2023-07-29T17:21:21;3.58;;;1.50;;
41043;SDS011;51680;49.806;18.774;2023-07-29T17:24:24;3.65;;;1.58;;
41043;SDS011;51680;49.806;18.774;2023-07-29T17:27:28;3.70;;;1.50;;
41043;SDS011;51680;49.806;18.774;2023-07-29T17:30:31;4.18;;;1.35;;
41043;SDS011;51680;49.806;18.774;2023-07-29T17:33:35;4.82;;;1.27;;
41043;SDS011;51680;49.806;18.774;2023-07-29T17:36:37;4.05;;;1.50;;
41043;SDS011;51680;49.806;18.774;2023-07-29T17:39:40;3.65;;;1.25;;
41043;SDS011;51680;49.806;18.774;2023-07-29T17:42:42;4.05;;;1.20;;
41043;SDS011;51680;49.806;18.774;2023-07-29T17:45:44;3.58;;;1.20;;
41043;SDS011;51680;49.806;18.774;2023-07-29T17:48:46;3.13;;;1.10;;
41043;SDS011;51680;49.806;18.774;2023-07-29T17:51:48;2.45;;;0.93;;
41043;SDS011;51680;49.806;18.774;2023-07-29T17:54:51;2.78;;;0.90;;
41043;SDS011;51680;49.806;18.774;2023-07-29T17:57:54;2.17;;;1.10;;
41043;SDS011;51680;49.806;18.774;2023-07-29T18:00:58;2.20;;;1.40;;
41043;SDS011;51680;49.806;18.774;2023-07-29T18:03:59;3.22;;;1.35;;
41043;SDS011;51680;49.806;18.774;2023-07-29T18:07:01;4.18;;;1.40;;
41043;SDS011;51680;49.806;18.774;2023-07-29T18:10:05;3.80;;;1.10;;
41043;SDS011;51680;49.806;18.774;2023-07-29T18:13:07;1.77;;;1.00;;
41043;SDS011;51680;49.806;18.774;2023-07-29T18:16:09;2.22;;;1.20;;
41043;SDS011;51680;49.806;18.774;2023-07-29T18:19:12;4.00;;;1.02;;